Time,TemperatureF,DewpointF,PressureIn,WindDirection,WindDirectionDegrees,WindSpeedMPH,WindSpeedGustMPH,Humidity,HourlyPrecipIn,Conditions,Clouds,dailyrainin,SoftwareType,DateUTC
2013-06-23 00:00:00,77.9,68.2,30.30,SSE,158,5.0,10.0,72,0.00,,---,0.00,VWS V14.01,2013-06-23 05:00:00,
2013-06-23 00:10:00,77.9,68.6,30.30,SSE,158,4.0,9.0,73,0.00,,---,0.00,VWS V14.01,2013-06-23 05:10:00,
2013-06-23 00:20:00,77.9,68.6,30.29,South,180,4.0,11.0,73,0.00,,---,0.00,VWS V14.01,2013-06-23 05:20:00,
2013-06-23 00:30:00,77.7,68.4,30.30,SSE,158,2.0,7.0,73,0.00,,---,0.00,VWS V14.01,2013-06-23 05:30:00,
2013-06-23 00:40:00,77.7,68.4,30.30,South,180,2.0,6.0,73,0.00,,---,0.00,VWS V14.01,2013-06-23 05:40:00,
2013-06-23 00:50:00,77.6,68.3,30.30,SSE,158,2.0,9.0,73,0.00,,---,0.00,VWS V14.01,2013-06-23 05:50:00,
2013-06-23 01:00:00,77.4,68.5,30.29,South,180,2.0,5.0,74,0.00,,---,0.00,VWS V14.01,2013-06-23 06:00:00,
2013-06-23 01:10:00,77.2,68.3,30.29,South,180,2.0,7.0,74,0.00,,---,0.00,VWS V14.01,2013-06-23 06:10:00,
2013-06-23 01:20:00,77.0,68.5,30.28,South,180,1.0,6.0,75,0.00,,---,0.00,VWS V14.01,2013-06-23 06:20:00,
2013-06-23 01:30:00,76.8,68.3,30.28,South,180,2.0,6.0,75,0.00,,---,0.00,VWS V14.01,2013-06-23 06:30:00,
2013-06-23 01:40:00,76.7,68.6,30.28,SSW,202,1.0,5.0,76,0.00,,---,0.00,VWS V14.01,2013-06-23 06:40:00,
2013-06-23 01:50:00,76.5,68.8,30.28,SSW,202,3.0,10.0,77,0.00,,---,0.00,VWS V14.01,2013-06-23 06:50:00,
2013-06-23 02:00:00,76.5,69.1,30.28,South,180,4.0,10.0,78,0.00,,---,0.00,VWS V14.01,2013-06-23 07:00:00,
2013-06-23 02:10:00,76.5,69.1,30.28,South,180,4.0,10.0,78,0.00,,---,0.00,VWS V14.01,2013-06-23 07:10:00,
2013-06-23 02:20:00,76.7,69.3,30.28,South,180,4.0,11.0,78,0.00,,---,0.00,VWS V14.01,2013-06-23 07:20:00,
2013-06-23 02:30:00,76.7,69.3,30.27,South,180,5.0,13.0,78,0.00,,---,0.00,VWS V14.01,2013-06-23 07:30:00,
2013-06-23 02:40:00,76.7,69.3,30.27,South,180,6.0,15.0,78,0.00,,---,0.00,VWS V14.01,2013-06-23 07:40:00,
2013-06-23 02:50:00,76.8,69.4,30.27,South,180,6.0,15.0,78,0.00,,---,0.00,VWS V14.01,2013-06-23 07:50:00,
2013-06-23 03:00:00,76.8,69.4,30.27,South,180,5.0,13.0,78,0.00,,---,0.00,VWS V14.01,2013-06-23 08:00:00,
2013-06-23 03:10:00,76.8,69.4,30.27,SSW,202,6.0,12.0,78,0.00,,---,0.00,VWS V14.01,2013-06-23 08:10:00,
2013-06-23 03:20:00,76.8,69.4,30.26,South,180,4.0,9.0,78,0.00,,---,0.00,VWS V14.01,2013-06-23 08:20:00,
2013-06-23 03:30:00,76.7,69.3,30.26,SSW,202,4.0,11.0,78,0.00,,---,0.00,VWS V14.01,2013-06-23 08:30:00,
2013-06-23 03:40:00,76.7,69.3,30.26,South,180,6.0,12.0,78,0.00,,---,0.00,VWS V14.01,2013-06-23 08:40:00,
2013-06-23 03:50:00,76.7,69.3,30.26,South,180,6.0,15.0,78,0.00,,---,0.00,VWS V14.01,2013-06-23 08:50:00,
2013-06-23 04:00:00,76.5,69.5,30.26,South,180,6.0,11.0,79,0.00,,---,0.00,VWS V14.01,2013-06-23 09:00:00,
2013-06-23 04:10:00,76.5,69.5,30.26,South,180,6.0,13.0,79,0.00,,---,0.00,VWS V14.01,2013-06-23 09:10:00,
2013-06-23 04:20:00,76.3,69.3,30.26,South,180,6.0,13.0,79,0.00,,---,0.00,VWS V14.01,2013-06-23 09:20:00,
2013-06-23 04:30:00,76.3,69.3,30.26,South,180,6.0,18.0,79,0.00,,---,0.00,VWS V14.01,2013-06-23 09:30:00,
2013-06-23 04:40:00,76.3,69.7,30.26,SSW,202,5.0,14.0,80,0.00,,---,0.00,VWS V14.01,2013-06-23 09:40:00,
2013-06-23 04:50:00,76.1,69.5,30.26,SSW,202,4.0,10.0,80,0.00,,---,0.00,VWS V14.01,2013-06-23 09:50:00,
2013-06-23 05:00:00,76.1,69.5,30.26,SW,225,5.0,13.0,80,0.00,,---,0.00,VWS V14.01,2013-06-23 10:00:00,
2013-06-23 05:10:00,76.0,69.4,30.26,SW,225,5.0,12.0,80,0.00,,---,0.00,VWS V14.01,2013-06-23 10:10:00,
2013-06-23 05:20:00,76.0,69.4,30.26,SW,225,6.0,16.0,80,0.00,,---,0.00,VWS V14.01,2013-06-23 10:20:00,
2013-06-23 05:30:00,76.0,69.4,30.26,SW,225,5.0,12.0,80,0.00,,---,0.00,VWS V14.01,2013-06-23 10:30:00,
2013-06-23 05:40:00,75.8,69.2,30.26,SW,225,5.0,10.0,80,0.00,,---,0.00,VWS V14.01,2013-06-23 10:40:00,
2013-06-23 05:50:00,75.8,69.2,30.27,SW,225,4.0,15.0,80,0.00,,---,0.00,VWS V14.01,2013-06-23 10:50:00,
2013-06-23 06:00:00,75.6,69.0,30.28,SSW,202,4.0,11.0,80,0.00,,---,0.00,VWS V14.01,2013-06-23 11:00:00,
2013-06-23 06:10:00,75.6,69.4,30.28,SW,225,4.0,7.0,81,0.00,,---,0.00,VWS V14.01,2013-06-23 11:10:00,
2013-06-23 06:20:00,75.4,69.2,30.28,SSW,202,2.0,8.0,81,0.00,,---,0.00,VWS V14.01,2013-06-23 11:20:00,
2013-06-23 06:30:00,75.4,69.2,30.29,South,180,4.0,9.0,81,0.00,,---,0.00,VWS V14.01,2013-06-23 11:30:00,
2013-06-23 06:40:00,75.4,69.2,30.29,South,180,3.0,9.0,81,0.00,,---,0.00,VWS V14.01,2013-06-23 11:40:00,
2013-06-23 06:50:00,75.4,69.2,30.29,South,180,2.0,6.0,81,0.00,,---,0.00,VWS V14.01,2013-06-23 11:50:00,
2013-06-23 07:00:00,75.6,69.4,30.30,South,180,4.0,9.0,81,0.00,,---,0.00,VWS V14.01,2013-06-23 12:00:00,
2013-06-23 07:10:00,75.8,69.6,30.30,South,180,4.0,11.0,81,0.00,,---,0.00,VWS V14.01,2013-06-23 12:10:00,
2013-06-23 07:20:00,76.1,69.8,30.31,South,180,3.0,6.0,81,0.00,,---,0.00,VWS V14.01,2013-06-23 12:20:00,
2013-06-23 07:30:00,76.3,69.7,30.31,SSW,202,5.0,10.0,80,0.00,,---,0.00,VWS V14.01,2013-06-23 12:30:00,
2013-06-23 07:40:00,76.8,70.2,30.31,South,180,5.0,13.0,80,0.00,,---,0.00,VWS V14.01,2013-06-23 12:40:00,
2013-06-23 07:50:00,77.2,70.2,30.30,SSW,202,5.0,14.0,79,0.00,,---,0.00,VWS V14.01,2013-06-23 12:50:00,
2013-06-23 08:00:00,77.7,70.3,30.31,South,180,7.0,14.0,78,0.00,,---,0.00,VWS V14.01,2013-06-23 13:00:00,
2013-06-23 08:10:00,78.1,69.9,30.31,SSW,202,7.0,18.0,76,0.00,,---,0.00,VWS V14.01,2013-06-23 13:10:00,
2013-06-23 08:20:00,78.6,70.0,30.32,SSW,202,6.0,13.0,75,0.00,,---,0.00,VWS V14.01,2013-06-23 13:20:00,
2013-06-23 08:30:00,79.0,70.4,30.31,SSW,202,6.0,13.0,75,0.00,,---,0.00,VWS V14.01,2013-06-23 13:30:00,
2013-06-23 08:40:00,79.8,70.8,30.31,South,180,7.0,15.0,74,0.00,,---,0.00,VWS V14.01,2013-06-23 13:40:00,
2013-06-23 08:50:00,80.3,70.9,30.31,SSW,202,6.0,14.0,73,0.00,,---,0.00,VWS V14.01,2013-06-23 13:50:00,
2013-06-23 09:00:00,80.7,70.0,30.31,SW,225,11.0,20.0,70,0.00,,---,0.00,VWS V14.01,2013-06-23 14:00:00,
2013-06-23 09:10:00,81.2,70.1,30.31,SW,225,12.0,21.0,69,0.00,,---,0.00,VWS V14.01,2013-06-23 14:10:00,
2013-06-23 09:20:00,81.6,70.4,30.31,SW,225,10.0,17.0,69,0.00,,---,0.00,VWS V14.01,2013-06-23 14:20:00,
2013-06-23 09:30:00,82.2,70.2,30.30,SW,225,9.0,18.0,67,0.00,,---,0.00,VWS V14.01,2013-06-23 14:30:00,
2013-06-23 09:40:00,82.8,70.3,30.30,SW,225,10.0,18.0,66,0.00,,---,0.00,VWS V14.01,2013-06-23 14:40:00,
2013-06-23 09:50:00,83.6,71.1,30.30,SW,225,8.0,15.0,66,0.00,,---,0.00,VWS V14.01,2013-06-23 14:50:00,
2013-06-23 10:00:00,84.0,70.1,30.30,SW,225,9.0,17.0,63,0.00,,---,0.00,VWS V14.01,2013-06-23 15:00:00,
2013-06-23 10:10:00,84.1,69.7,30.30,SW,225,11.0,26.0,62,0.00,,---,0.00,VWS V14.01,2013-06-23 15:10:00,
2013-06-23 10:20:00,84.7,70.2,30.30,SW,225,10.0,23.0,62,0.00,,---,0.00,VWS V14.01,2013-06-23 15:20:00,
2013-06-23 10:30:00,84.7,69.8,30.30,SW,225,12.0,20.0,61,0.00,,---,0.00,VWS V14.01,2013-06-23 15:30:00,
2013-06-23 10:40:00,85.1,69.2,30.30,SW,225,11.0,20.0,59,0.00,,---,0.00,VWS V14.01,2013-06-23 15:40:00,
2013-06-23 10:50:00,85.3,68.9,30.30,SW,225,13.0,22.0,58,0.00,,---,0.00,VWS V14.01,2013-06-23 15:50:00,
2013-06-23 11:00:00,85.7,68.7,30.30,SW,225,13.0,21.0,57,0.00,,---,0.00,VWS V14.01,2013-06-23 16:00:00,
2013-06-23 11:10:00,86.1,68.6,30.30,SW,225,11.0,18.0,56,0.00,,---,0.00,VWS V14.01,2013-06-23 16:10:00,
2013-06-23 11:20:00,86.5,70.0,30.30,SW,225,11.0,20.0,58,0.00,,---,0.00,VWS V14.01,2013-06-23 16:20:00,
2013-06-23 11:30:00,86.3,69.3,30.30,SW,225,12.0,24.0,57,0.00,,---,0.00,VWS V14.01,2013-06-23 16:30:00,
2013-06-23 11:40:00,86.3,69.8,30.30,SW,225,9.0,16.0,58,0.00,,---,0.00,VWS V14.01,2013-06-23 16:40:00,
2013-06-23 11:50:00,85.9,69.4,30.30,SW,225,10.0,20.0,58,0.00,,---,0.00,VWS V14.01,2013-06-23 16:50:00,
2013-06-23 12:00:00,87.0,69.4,30.31,SW,225,10.0,17.0,56,0.00,,---,0.00,VWS V14.01,2013-06-23 17:00:00,
2013-06-23 12:10:00,87.4,69.8,30.31,SW,225,11.0,21.0,56,0.00,,---,0.00,VWS V14.01,2013-06-23 17:10:00,
2013-06-23 12:20:00,88.0,69.8,30.30,SW,225,10.0,18.0,55,0.00,,---,0.00,VWS V14.01,2013-06-23 17:20:00,
2013-06-23 12:30:00,88.2,70.0,30.31,SW,225,10.0,17.0,55,0.00,,---,0.00,VWS V14.01,2013-06-23 17:30:00,
2013-06-23 12:40:00,88.8,71.1,30.31,SW,225,10.0,19.0,56,0.00,,---,0.00,VWS V14.01,2013-06-23 17:40:00,
2013-06-23 12:50:00,88.6,69.8,30.31,SW,225,8.0,20.0,54,0.00,,---,0.00,VWS V14.01,2013-06-23 17:50:00,
2013-06-23 13:00:00,89.0,69.7,30.31,SW,225,10.0,17.0,53,0.00,,---,0.00,VWS V14.01,2013-06-23 18:00:00,
2013-06-23 13:10:00,88.4,69.7,30.31,SSW,202,8.0,16.0,54,0.00,,---,0.00,VWS V14.01,2013-06-23 18:10:00,
2013-06-23 13:20:00,88.0,69.3,30.31,SSW,202,9.0,19.0,54,0.00,,---,0.00,VWS V14.01,2013-06-23 18:20:00,
2013-06-23 13:30:00,88.4,69.7,30.31,SW,225,7.0,14.0,54,0.00,,---,0.00,VWS V14.01,2013-06-23 18:30:00,
2013-06-23 13:40:00,88.6,70.4,30.31,SSW,202,9.0,18.0,55,0.00,,---,0.00,VWS V14.01,2013-06-23 18:40:00,
2013-06-23 13:50:00,90.1,70.7,30.30,South,180,9.0,16.0,53,0.00,,---,0.00,VWS V14.01,2013-06-23 18:50:00,
2013-06-23 14:00:00,89.9,69.9,30.30,SSW,202,8.0,17.0,52,0.00,,---,0.00,VWS V14.01,2013-06-23 19:00:00,
2013-06-23 14:10:00,89.3,71.0,30.30,South,180,8.0,17.0,55,0.00,,---,0.00,VWS V14.01,2013-06-23 19:10:00,
2013-06-23 14:20:00,90.1,69.6,30.30,South,180,8.0,16.0,51,0.00,,---,0.00,VWS V14.01,2013-06-23 19:20:00,
2013-06-23 14:30:00,90.1,70.7,30.29,South,180,7.0,15.0,53,0.00,,---,0.00,VWS V14.01,2013-06-23 19:30:00,
2013-06-23 14:40:00,91.6,71.5,30.29,South,180,9.0,17.0,52,0.00,,---,0.00,VWS V14.01,2013-06-23 19:40:00,
2013-06-23 14:50:00,90.5,68.2,30.28,South,180,8.0,15.0,48,0.00,,---,0.00,VWS V14.01,2013-06-23 19:50:00,
2013-06-23 15:00:00,91.0,68.6,30.28,SSW,202,7.0,20.0,48,0.00,,---,0.00,VWS V14.01,2013-06-23 20:00:00,
2013-06-23 15:10:00,90.3,69.2,30.28,SSW,202,8.0,17.0,50,0.00,,---,0.00,VWS V14.01,2013-06-23 20:10:00,
2013-06-23 15:20:00,91.2,68.8,30.28,South,180,7.0,16.0,48,0.00,,---,0.00,VWS V14.01,2013-06-23 20:20:00,
2013-06-23 15:30:00,91.2,69.4,30.27,South,180,7.0,14.0,49,0.00,,---,0.00,VWS V14.01,2013-06-23 20:30:00,
2013-06-23 15:40:00,91.0,69.2,30.27,South,180,8.0,16.0,49,0.00,,---,0.00,VWS V14.01,2013-06-23 20:40:00,
2013-06-23 15:50:00,90.7,70.1,30.27,South,180,7.0,15.0,51,0.00,,---,0.00,VWS V14.01,2013-06-23 20:50:00,
2013-06-23 16:00:00,90.5,68.2,30.26,South,180,8.0,16.0,48,0.00,,---,0.00,VWS V14.01,2013-06-23 21:00:00,
2013-06-23 16:10:00,89.7,66.8,30.26,SSW,202,8.0,16.0,47,0.00,,---,0.00,VWS V14.01,2013-06-23 21:10:00,
2013-06-23 16:20:00,90.7,67.1,30.26,SSW,202,7.0,16.0,46,0.00,,---,0.00,VWS V14.01,2013-06-23 21:20:00,
2013-06-23 16:30:00,89.9,67.6,30.26,SSW,202,7.0,16.0,48,0.00,,---,0.00,VWS V14.01,2013-06-23 21:30:00,
2013-06-23 16:40:00,89.7,66.8,30.26,SSW,202,9.0,17.0,47,0.00,,---,0.00,VWS V14.01,2013-06-23 21:40:00,
2013-06-23 16:50:00,90.5,66.9,30.25,South,180,8.0,19.0,46,0.00,,---,0.00,VWS V14.01,2013-06-23 21:50:00,
2013-06-23 17:00:00,90.5,66.9,30.25,South,180,9.0,18.0,46,0.00,,---,0.00,VWS V14.01,2013-06-23 22:00:00,
2013-06-23 17:10:00,90.1,66.6,30.25,South,180,9.0,17.0,46,0.00,,---,0.00,VWS V14.01,2013-06-23 22:10:00,
2013-06-23 17:20:00,89.9,65.7,30.25,South,180,9.0,17.0,45,0.00,,---,0.00,VWS V14.01,2013-06-23 22:20:00,
2013-06-23 17:30:00,90.5,65.6,30.24,South,180,7.0,17.0,44,0.00,,---,0.00,VWS V14.01,2013-06-23 22:30:00,
2013-06-23 17:40:00,89.7,66.2,30.24,South,180,9.0,18.0,46,0.00,,---,0.00,VWS V14.01,2013-06-23 22:40:00,
2013-06-23 17:50:00,89.5,66.0,30.24,South,180,9.0,17.0,46,0.00,,---,0.00,VWS V14.01,2013-06-23 22:50:00,
2013-06-23 18:00:00,89.3,65.8,30.23,South,180,9.0,17.0,46,0.00,,---,0.00,VWS V14.01,2013-06-23 23:00:00,
2013-06-23 18:10:00,89.0,64.9,30.23,South,180,9.0,19.0,45,0.00,,---,0.00,VWS V14.01,2013-06-23 23:10:00,
2013-06-23 18:20:00,88.8,65.4,30.22,South,180,10.0,20.0,46,0.00,,---,0.00,VWS V14.01,2013-06-23 23:20:00,
2013-06-23 18:30:00,88.8,66.0,30.23,South,180,8.0,16.0,47,0.00,,---,0.00,VWS V14.01,2013-06-23 23:30:00,
2013-06-23 18:40:00,88.6,65.2,30.23,South,180,10.0,19.0,46,0.00,,---,0.00,VWS V14.01,2013-06-23 23:40:00,
2013-06-23 18:50:00,88.2,64.8,30.24,South,180,8.0,18.0,46,0.00,,---,0.00,VWS V14.01,2013-06-23 23:50:00,
2013-06-23 19:00:00,87.6,65.5,30.24,South,180,8.0,20.0,48,0.00,,---,0.00,VWS V14.01,2013-06-24 00:00:00,
2013-06-23 19:10:00,87.2,65.1,30.24,SSW,202,7.0,14.0,48,0.00,,---,0.00,VWS V14.01,2013-06-24 00:10:00,
2013-06-23 19:20:00,88.8,65.4,30.22,South,180,10.0,20.0,46,0.00,,---,0.00,VWS V14.01,2013-06-24 00:20:00,
2013-06-23 19:30:00,88.8,66.0,30.23,South,180,8.0,16.0,47,0.00,,---,0.00,VWS V14.01,2013-06-24 00:30:00,
2013-06-23 19:32:00,87.2,65.1,30.24,SSW,202,7.0,14.0,48,0.00,,---,0.00,VWS V14.01,2013-06-24 00:32:00,
2013-06-23 19:37:00,86.3,66.6,30.24,SE,134,0.0,7.0,52,0.00,,---,0.00,VWS V14.01,2013-06-24 00:37:00,
2013-06-23 19:40:00,85.9,66.2,30.24,South,182,5.0,7.0,52,0.00,,---,0.00,VWS V14.01,2013-06-24 00:40:00,
2013-06-23 19:42:00,85.9,66.2,30.24,South,182,0.0,5.0,52,0.00,,---,0.00,VWS V14.01,2013-06-24 00:42:00,
2013-06-23 19:47:00,85.7,66.6,30.25,SSW,203,1.0,8.0,53,0.00,,---,0.00,VWS V14.01,2013-06-24 00:47:00,
2013-06-23 19:50:00,85.7,66.1,30.25,South,183,4.0,11.0,52,0.00,,---,0.00,VWS V14.01,2013-06-24 00:50:00,
2013-06-23 19:52:00,85.5,66.4,30.25,SW,217,1.0,6.0,53,0.00,,---,0.00,VWS V14.01,2013-06-24 00:52:00,
2013-06-23 19:57:00,85.3,66.2,30.25,SSW,201,4.0,12.0,53,0.00,,---,0.00,VWS V14.01,2013-06-24 00:57:00,
2013-06-23 20:00:00,84.9,66.4,30.25,South,191,4.0,12.0,54,0.00,,---,0.00,VWS V14.01,2013-06-24 01:00:00,
2013-06-23 20:02:00,84.9,66.4,30.25,SSW,198,3.0,6.0,54,0.00,,---,0.00,VWS V14.01,2013-06-24 01:02:00,
2013-06-23 20:07:00,84.5,66.6,30.25,South,186,2.0,9.0,55,0.00,,---,0.00,VWS V14.01,2013-06-24 01:07:00,
2013-06-23 20:10:00,84.1,66.7,30.25,South,187,4.0,9.0,56,0.00,,---,0.00,VWS V14.01,2013-06-24 01:10:00,
2013-06-23 20:12:00,84.1,66.7,30.25,South,187,3.0,5.0,56,0.00,,---,0.00,VWS V14.01,2013-06-24 01:12:00,
2013-06-23 20:17:00,84.1,66.7,30.25,South,187,1.0,5.0,56,0.00,,---,0.00,VWS V14.01,2013-06-24 01:17:00,
2013-06-23 20:20:00,84.1,66.7,30.25,SSE,155,7.0,7.0,56,0.00,,---,0.00,VWS V14.01,2013-06-24 01:20:00,
2013-06-23 20:22:00,84.1,66.7,30.25,SSE,165,1.0,7.0,56,0.00,,---,0.00,VWS V14.01,2013-06-24 01:22:00,
2013-06-23 20:27:00,84.0,67.1,30.25,South,176,4.0,7.0,57,0.00,,---,0.00,VWS V14.01,2013-06-24 01:27:00,
2013-06-23 20:30:00,84.0,67.1,30.26,SSE,150,5.0,8.0,57,0.00,,---,0.00,VWS V14.01,2013-06-24 01:30:00,
2013-06-23 20:32:00,84.0,67.1,30.26,SE,145,2.0,5.0,57,0.00,,---,0.00,VWS V14.01,2013-06-24 01:32:00,
2013-06-23 20:37:00,83.8,67.5,30.26,South,178,3.0,6.0,58,0.00,,---,0.00,VWS V14.01,2013-06-24 01:37:00,
2013-06-23 20:40:00,83.8,67.5,30.26,South,174,3.0,6.0,58,0.00,,---,0.00,VWS V14.01,2013-06-24 01:40:00,
2013-06-23 20:42:00,83.8,67.5,30.26,South,174,4.0,4.0,58,0.00,,---,0.00,VWS V14.01,2013-06-24 01:42:00,
2013-06-23 20:47:00,83.6,67.3,30.26,South,185,4.0,10.0,58,0.00,,---,0.00,VWS V14.01,2013-06-24 01:47:00,
2013-06-23 20:50:00,83.4,67.1,30.26,SSW,198,5.0,10.0,58,0.00,,---,0.00,VWS V14.01,2013-06-24 01:50:00,
2013-06-23 20:52:00,83.4,67.6,30.26,South,169,7.0,11.0,59,0.00,,---,0.00,VWS V14.01,2013-06-24 01:52:00,
2013-06-23 20:57:00,83.2,67.4,30.26,South,188,4.0,11.0,59,0.00,,---,0.00,VWS V14.01,2013-06-24 01:57:00,
2013-06-23 21:00:00,83.0,67.2,30.25,SSW,208,3.0,11.0,59,0.00,,---,0.00,VWS V14.01,2013-06-24 02:00:00,
2013-06-23 21:02:00,83.0,67.7,30.25,SSW,195,2.0,9.0,60,0.00,,---,0.00,VWS V14.01,2013-06-24 02:02:00,
2013-06-23 21:07:00,82.6,67.3,30.25,SW,217,4.0,9.0,60,0.00,,---,0.00,VWS V14.01,2013-06-24 02:07:00,
2013-06-23 21:10:00,82.4,67.6,30.25,SSW,206,0.0,9.0,61,0.00,,---,0.00,VWS V14.01,2013-06-24 02:10:00,
2013-06-23 21:12:00,82.4,67.6,30.25,South,182,3.0,6.0,61,0.00,,---,0.00,VWS V14.01,2013-06-24 02:12:00,
2013-06-23 21:17:00,82.2,67.4,30.25,SSW,195,5.0,6.0,61,0.00,,---,0.00,VWS V14.01,2013-06-24 02:17:00,
2013-06-23 21:20:00,82.0,67.2,30.25,South,169,4.0,7.0,61,0.00,,---,0.00,VWS V14.01,2013-06-24 02:20:00,
2013-06-23 21:22:00,82.0,67.2,30.25,South,186,7.0,7.0,61,0.00,,---,0.00,VWS V14.01,2013-06-24 02:22:00,
2013-06-23 21:27:00,81.6,66.9,30.25,SW,221,6.0,10.0,61,0.00,,---,0.00,VWS V14.01,2013-06-24 02:27:00,
2013-06-23 21:30:00,81.4,66.7,30.26,SW,214,4.0,13.0,61,0.00,,---,0.00,VWS V14.01,2013-06-24 02:30:00,
2013-06-23 21:32:00,81.4,66.7,30.26,SSW,205,4.0,7.0,61,0.00,,---,0.00,VWS V14.01,2013-06-24 02:32:00,
2013-06-23 21:37:00,81.2,66.9,30.26,South,184,7.0,11.0,62,0.00,,---,0.00,VWS V14.01,2013-06-24 02:37:00,
2013-06-23 21:40:00,81.1,66.9,30.26,South,187,9.0,12.0,62,0.00,,---,0.00,VWS V14.01,2013-06-24 02:40:00,
2013-06-23 21:42:00,81.1,66.9,30.26,SSW,207,3.0,10.0,62,0.00,,---,0.00,VWS V14.01,2013-06-24 02:42:00,
2013-06-23 21:47:00,80.9,66.7,30.27,SW,232,9.0,12.0,62,0.00,,---,0.00,VWS V14.01,2013-06-24 02:47:00,
2013-06-23 21:50:00,80.9,66.7,30.27,SSW,213,8.0,12.0,62,0.00,,---,0.00,VWS V14.01,2013-06-24 02:50:00,
2013-06-23 21:52:00,80.9,66.7,30.27,SSW,206,6.0,9.0,62,0.00,,---,0.00,VWS V14.01,2013-06-24 02:52:00,
2013-06-23 21:57:00,80.7,66.5,30.27,South,180,7.0,13.0,62,0.00,,---,0.00,VWS V14.01,2013-06-24 02:57:00,
2013-06-23 22:00:00,80.7,66.0,30.28,SW,223,9.0,13.0,61,0.00,,---,0.00,VWS V14.01,2013-06-24 03:00:00,
2013-06-23 22:02:00,80.7,66.0,30.28,SSW,209,6.0,11.0,61,0.00,,---,0.00,VWS V14.01,2013-06-24 03:02:00,
2013-06-23 22:07:00,80.5,65.8,30.28,South,182,5.0,11.0,61,0.00,,---,0.00,VWS V14.01,2013-06-24 03:07:00,
2013-06-23 22:10:00,80.5,65.8,30.28,SSW,192,1.0,11.0,61,0.00,,---,0.00,VWS V14.01,2013-06-24 03:10:00,
2013-06-23 22:12:00,80.5,65.8,30.28,SSW,192,3.0,3.0,61,0.00,,---,0.00,VWS V14.01,2013-06-24 03:12:00,
2013-06-23 22:17:00,80.3,65.6,30.28,SW,217,1.0,9.0,61,0.00,,---,0.00,VWS V14.01,2013-06-24 03:17:00,
2013-06-23 22:20:00,80.3,66.1,30.28,SSW,192,4.0,9.0,62,0.00,,---,0.00,VWS V14.01,2013-06-24 03:20:00,
2013-06-23 22:22:00,80.1,65.9,30.28,SSW,192,4.0,5.0,62,0.00,,---,0.00,VWS V14.01,2013-06-24 03:22:00,
2013-06-23 22:27:00,80.1,65.9,30.28,SSW,192,3.0,5.0,62,0.00,,---,0.00,VWS V14.01,2013-06-24 03:27:00,
2013-06-23 22:30:00,79.9,66.2,30.29,SSW,200,2.0,6.0,63,0.00,,---,0.00,VWS V14.01,2013-06-24 03:30:00,
2013-06-23 22:32:00,79.9,66.2,30.29,SSW,200,0.0,3.0,63,0.00,,---,0.00,VWS V14.01,2013-06-24 03:32:00,
2013-06-23 22:37:00,79.8,66.1,30.29,SSW,203,0.0,5.0,63,0.00,,---,0.00,VWS V14.01,2013-06-24 03:37:00,
2013-06-23 22:40:00,79.6,66.4,30.29,SSW,206,4.0,5.0,64,0.00,,---,0.00,VWS V14.01,2013-06-24 03:40:00,
2013-06-23 22:42:00,79.6,66.4,30.29,SSW,206,1.0,4.0,64,0.00,,---,0.00,VWS V14.01,2013-06-24 03:42:00,
2013-06-23 22:47:00,79.4,66.2,30.29,South,187,8.0,8.0,64,0.00,,---,0.00,VWS V14.01,2013-06-24 03:47:00,
2013-06-23 22:50:00,79.2,66.4,30.29,SSE,168,5.0,8.0,65,0.00,,---,0.00,VWS V14.01,2013-06-24 03:50:00,
2013-06-23 22:52:00,79.2,66.4,30.29,SSW,196,5.0,8.0,65,0.00,,---,0.00,VWS V14.01,2013-06-24 03:52:00,
2013-06-23 22:57:00,79.0,66.2,30.29,South,173,2.0,8.0,65,0.00,,---,0.00,VWS V14.01,2013-06-24 03:57:00,
2013-06-23 23:00:00,79.0,66.7,30.30,South,170,3.0,8.0,66,0.00,,---,0.00,VWS V14.01,2013-06-24 04:00:00,
2013-06-23 23:01:00,79.0,66.7,30.30,South,170,3.0,8.0,66,0.00,,---,0.00,VWS V14.01,2013-06-24 04:01:00,
2013-06-23 23:06:00,78.8,66.5,30.30,South,182,5.0,6.0,66,0.00,,---,0.00,VWS V14.01,2013-06-24 04:06:00,
2013-06-23 23:10:00,78.6,66.3,30.30,SSW,202,3.0,6.0,66,0.00,,---,0.00,VWS V14.01,2013-06-24 04:10:00,
2013-06-23 23:11:00,78.6,66.3,30.30,SSW,202,2.0,3.0,66,0.00,,---,0.00,VWS V14.01,2013-06-24 04:11:00,
2013-06-23 23:16:00,78.6,66.3,30.30,SSW,194,3.0,6.0,66,0.00,,---,0.00,VWS V14.01,2013-06-24 04:16:00,
2013-06-23 23:20:00,78.5,66.6,30.30,SSW,194,3.0,6.0,67,0.00,,---,0.00,VWS V14.01,2013-06-24 04:20:00,
2013-06-23 23:21:00,78.5,66.6,30.30,SSW,202,3.0,7.0,67,0.00,,---,0.00,VWS V14.01,2013-06-24 04:21:00,
2013-06-23 23:26:00,78.3,66.4,30.30,SSW,198,3.0,7.0,67,0.00,,---,0.00,VWS V14.01,2013-06-24 04:26:00,
2013-06-23 23:30:00,78.1,66.3,30.30,South,185,0.0,7.0,67,0.00,,---,0.00,VWS V14.01,2013-06-24 04:30:00,
2013-06-23 23:31:00,78.1,66.3,30.30,South,185,4.0,4.0,67,0.00,,---,0.00,VWS V14.01,2013-06-24 04:31:00,
2013-06-23 23:36:00,78.1,66.7,30.30,South,191,2.0,6.0,68,0.00,,---,0.00,VWS V14.01,2013-06-24 04:36:00,
2013-06-23 23:40:00,77.9,66.5,30.30,South,188,0.0,6.0,68,0.00,,---,0.00,VWS V14.01,2013-06-24 04:40:00,
2013-06-23 23:41:00,77.9,66.5,30.30,South,188,2.0,3.0,68,0.00,,---,0.00,VWS V14.01,2013-06-24 04:41:00,
2013-06-23 23:46:00,77.7,66.3,30.31,South,188,0.0,5.0,68,0.00,,---,0.00,VWS V14.01,2013-06-24 04:46:00,
2013-06-23 23:50:00,77.7,66.3,30.31,South,188,3.0,5.0,68,0.00,,---,0.00,VWS V14.01,2013-06-24 04:50:00,
2013-06-23 23:51:00,77.7,66.3,30.31,South,188,2.0,3.0,68,0.00,,---,0.00,VWS V14.01,2013-06-24 04:51:00,
2013-06-23 23:56:00,77.6,66.6,30.31,South,185,4.0,7.0,69,0.00,,---,0.00,VWS V14.01,2013-06-24 04:56:00,